Data for 08/31/2017

Time Sea-Level Adjusted Pressure Absolute Pressure Temperature Relative Humidity Dew Point   
(mb) (inHg) (mb) (inHg) (C) (F) (%) (C) (F)
00:05 1019 30.09 848 25.04 19.1 66.4 36 3.8 38.9
00:10 1019 30.09 848 25.04 18.5 65.4 35 3.1 37.5
00:15 1019 30.09 848 25.04 18.6 65.4 34 2.5 36.4
00:20 1019 30.09 849 25.07 18.9 66 33 2.6 36.7
00:25 1019 30.09 849 25.07 19 66.1 35 3.2 37.8
00:30 1019 30.09 849 25.07 18.8 65.8 33 2.4 36.2
00:35 1020 30.12 849 25.07 19.3 66.7 32 2.3 36.1
00:40 1020 30.12 849 25.07 19.5 67.1 32 2.4 36.3
00:45 1020 30.12 849 25.07 19.4 67 34 3.5 38.3
00:50 1020 30.12 849 25.07 18.9 66.1 36 3.8 38.9
00:55 1020 30.12 849 25.07 18.7 65.6 37 3.9 39
01:00 1020 30.12 849 25.07 18.5 65.3 37 3.6 38.4
01:05 1020 30.12 849 25.07 18.6 65.4 36 3.5 38.4
01:10 1020 30.12 849 25.07 18.7 65.6 33 2.3 36.2
01:15 1020 30.12 849 25.07 19.1 66.4 33 2.7 36.8
01:20 1020 30.12 849 25.07 19 66.1 35 3.2 37.7
01:25 1020 30.12 849 25.07 18.5 65.3 37 3.5 38.3
01:30 1020 30.12 849 25.07 18 64.4 39 3.8 38.9
01:35 1020 30.12 849 25.07 17.9 64.2 38 3.5 38.3
01:40 1020 30.12 849 25.07 18 64.4 37 3.4 38.1
01:45 1020 30.12 849 25.07 18 64.3 38 3.6 38.4
01:50 1020 30.12 849 25.07 18.1 64.6 37 3.3 38
01:55 1020 30.12 849 25.07 18.2 64.7 37 3.3 37.9
02:00 1020 30.12 849 25.07 18 64.3 37 3.1 37.7
02:05 1020 30.12 849 25.07 18 64.3 37 3.3 38
02:10 1020 30.12 849 25.07 17.7 63.8 38 3.2 37.8
02:15 1020 30.12 849 25.07 17.3 63.1 41 4.1 39.5
02:20 1020 30.12 849 25.07 16.7 62.1 43 4.1 39.4
02:25 1020 30.12 849 25.07 16.4 61.6 44 4.1 39.4
02:30 1020 30.12 849 25.07 16.3 61.3 44 4.1 39.3
02:35 1020 30.12 849 25.07 16.2 61.2 43 3.8 38.9
02:40 1020 30.12 849 25.07 16.3 61.3 43 3.9 38.9
02:45 1020 30.12 849 25.07 16.5 61.7 42 3.6 38.5
02:50 1020 30.12 849 25.07 16.4 61.6 43 3.8 38.9
02:55 1020 30.12 849 25.07 16.3 61.3 43 3.8 38.8
03:00 1020 30.12 849 25.07 16.4 61.6 43 3.9 39.1
03:05 1020 30.12 849 25.07 16.6 62 42 3.7 38.6
03:10 1020 30.12 849 25.07 16.7 62.1 42 3.8 38.9
03:15 1020 30.12 849 25.07 16.7 62 41 3.6 38.4
03:20 1020 30.12 849 25.07 16.8 62.2 41 3.6 38.4
03:25 1020 30.12 849 25.07 16.7 62 42 3.7 38.7
03:30 1020 30.12 849 25.07 16.7 62.1 41 3.5 38.3
03:35 1020 30.12 849 25.07 16.8 62.3 41 3.7 38.6
03:40 1020 30.12 849 25.07 16.7 62.1 42 4 39.2
03:45 1020 30.12 849 25.07 16.7 62 41 3.5 38.2
03:50 1020 30.12 849 25.07 17.1 62.8 39 3.3 38
03:55 1020 30.12 849 25.07 17.5 63.4 39 3.3 38
04:00 1020 30.12 849 25.07 17.5 63.5 40 3.7 38.7
04:05 1020 30.12 849 25.07 17.2 63 41 3.9 39
04:10 1020 30.12 849 25.07 16.9 62.4 42 4.1 39.3
04:15 1020 30.12 849 25.07 16.7 62 41 3.5 38.2
04:20 1020 30.12 849 25.07 17.1 62.8 40 3.7 38.6
04:25 1020 30.12 849 25.07 16.9 62.4 42 3.9 39
04:30 1020 30.12 849 25.07 16.7 62 42 3.9 39.1
04:35 1020 30.12 849 25.07 16.3 61.4 43 3.9 39
04:40 1020 30.12 849 25.07 16.1 61 44 3.8 38.9
04:45 1020 30.12 849 25.07 15.9 60.7 45 4 39.1
04:50 1020 30.12 849 25.07 15.8 60.5 45 3.9 39
04:55 1020 30.12 849 25.07 15.5 59.8 48 4.6 40.3
05:00 1020 30.12 849 25.07 15.1 59.2 47 3.9 39.1
05:05 1020 30.12 849 25.07 15.6 60 44 3.5 38.3
05:10 1020 30.12 849 25.07 16 60.8 44 3.8 38.8
05:15 1020 30.12 849 25.07 16 60.8 43 3.7 38.6
05:20 1020 30.12 849 25.07 16 60.8 43 3.7 38.6
05:25 1020 30.12 849 25.07 16.1 60.9 43 3.7 38.6
05:30 1020 30.12 849 25.07 16.1 61 43 3.7 38.6
05:35 1020 30.12 849 25.07 16.2 61.2 43 3.6 38.5
05:40 1020 30.12 849 25.07 16.4 61.5 42 3.6 38.4
05:45 1020 30.12 849 25.07 16.5 61.6 41 3.3 38
05:50 1020 30.12 849 25.07 16.9 62.4 40 3.3 38
05:55 1020 30.12 849 25.07 17 62.5 40 3.4 38.1
06:00 1020 30.12 849 25.07 17 62.5 40 3.5 38.4
06:05 1020 30.12 849 25.07 16.8 62.3 42 3.8 38.9
06:10 1020 30.12 849 25.07 16.5 61.7 43 3.9 39
06:15 1020 30.12 849 25.07 16.3 61.3 44 4 39.2
06:20 1020 30.12 849 25.07 16 60.8 46 4.5 40.1